sensor_id;sensor_type;location;lat;lon;timestamp;P1;durP1;ratioP1;P2;durP2;ratioP2
34783;SDS011;20998;51.388;7.032;2023-09-18T00:01:41;5.87;;;3.60;;
34783;SDS011;20998;51.388;7.032;2023-09-18T00:04:07;5.30;;;3.70;;
34783;SDS011;20998;51.388;7.032;2023-09-18T00:06:33;4.90;;;3.80;;
34783;SDS011;20998;51.388;7.032;2023-09-18T00:08:59;5.10;;;3.57;;
34783;SDS011;20998;51.388;7.032;2023-09-18T00:11:25;4.97;;;3.60;;
34783;SDS011;20998;51.388;7.032;2023-09-18T00:13:51;6.83;;;3.90;;
34783;SDS011;20998;51.388;7.032;2023-09-18T00:16:16;7.93;;;3.80;;
34783;SDS011;20998;51.388;7.032;2023-09-18T00:18:42;6.73;;;4.33;;
34783;SDS011;20998;51.388;7.032;2023-09-18T00:21:09;8.90;;;4.17;;
34783;SDS011;20998;51.388;7.032;2023-09-18T00:23:36;4.63;;;3.53;;
34783;SDS011;20998;51.388;7.032;2023-09-18T00:26:02;6.93;;;4.07;;
34783;SDS011;20998;51.388;7.032;2023-09-18T00:28:28;6.47;;;4.17;;
34783;SDS011;20998;51.388;7.032;2023-09-18T00:30:54;9.23;;;4.20;;
34783;SDS011;20998;51.388;7.032;2023-09-18T00:33:19;11.67;;;4.17;;
34783;SDS011;20998;51.388;7.032;2023-09-18T00:35:46;6.90;;;4.10;;
34783;SDS011;20998;51.388;7.032;2023-09-18T00:38:12;6.87;;;4.20;;
34783;SDS011;20998;51.388;7.032;2023-09-18T00:40:38;7.53;;;4.33;;
34783;SDS011;20998;51.388;7.032;2023-09-18T00:43:04;5.17;;;3.93;;
34783;SDS011;20998;51.388;7.032;2023-09-18T00:45:30;10.00;;;4.30;;
34783;SDS011;20998;51.388;7.032;2023-09-18T00:47:56;9.93;;;3.97;;
34783;SDS011;20998;51.388;7.032;2023-09-18T00:50:22;7.80;;;4.03;;
34783;SDS011;20998;51.388;7.032;2023-09-18T00:52:49;6.33;;;3.90;;
34783;SDS011;20998;51.388;7.032;2023-09-18T00:55:15;5.83;;;3.97;;
34783;SDS011;20998;51.388;7.032;2023-09-18T00:57:41;6.10;;;3.80;;
34783;SDS011;20998;51.388;7.032;2023-09-18T01:00:08;9.00;;;4.23;;
34783;SDS011;20998;51.388;7.032;2023-09-18T01:02:34;5.20;;;3.93;;
34783;SDS011;20998;51.388;7.032;2023-09-18T01:05:00;6.70;;;3.80;;
34783;SDS011;20998;51.388;7.032;2023-09-18T01:07:26;5.53;;;3.73;;
34783;SDS011;20998;51.388;7.032;2023-09-18T01:09:53;10.50;;;4.07;;
34783;SDS011;20998;51.388;7.032;2023-09-18T01:17:30;6.80;;;3.87;;
34783;SDS011;20998;51.388;7.032;2023-09-18T01:19:59;7.30;;;4.07;;
34783;SDS011;20998;51.388;7.032;2023-09-18T01:22:28;9.03;;;4.47;;
34783;SDS011;20998;51.388;7.032;2023-09-18T01:24:55;8.77;;;3.50;;
34783;SDS011;20998;51.388;7.032;2023-09-18T01:27:21;6.67;;;4.30;;
34783;SDS011;20998;51.388;7.032;2023-09-18T01:29:48;8.70;;;3.80;;
34783;SDS011;20998;51.388;7.032;2023-09-18T01:32:18;5.17;;;3.57;;
34783;SDS011;20998;51.388;7.032;2023-09-18T01:34:47;6.87;;;4.53;;
34783;SDS011;20998;51.388;7.032;2023-09-18T01:37:15;8.80;;;3.67;;
34783;SDS011;20998;51.388;7.032;2023-09-18T01:39:44;8.93;;;4.03;;
34783;SDS011;20998;51.388;7.032;2023-09-18T01:42:12;9.57;;;4.67;;
34783;SDS011;20998;51.388;7.032;2023-09-18T01:44:39;8.23;;;3.70;;
34783;SDS011;20998;51.388;7.032;2023-09-18T01:47:06;5.63;;;3.63;;
34783;SDS011;20998;51.388;7.032;2023-09-18T01:49:34;9.00;;;3.33;;
34783;SDS011;20998;51.388;7.032;2023-09-18T01:52:02;8.40;;;3.90;;
34783;SDS011;20998;51.388;7.032;2023-09-18T01:54:28;5.67;;;3.43;;
34783;SDS011;20998;51.388;7.032;2023-09-18T01:56:55;8.67;;;4.10;;
34783;SDS011;20998;51.388;7.032;2023-09-18T01:59:21;10.27;;;3.50;;
34783;SDS011;20998;51.388;7.032;2023-09-18T02:01:48;9.17;;;3.73;;
34783;SDS011;20998;51.388;7.032;2023-09-18T02:04:14;5.47;;;3.43;;
34783;SDS011;20998;51.388;7.032;2023-09-18T02:06:40;7.17;;;3.83;;
34783;SDS011;20998;51.388;7.032;2023-09-18T02:09:07;5.73;;;3.60;;
34783;SDS011;20998;51.388;7.032;2023-09-18T02:11:35;6.83;;;3.63;;
34783;SDS011;20998;51.388;7.032;2023-09-18T02:14:05;12.23;;;4.00;;
34783;SDS011;20998;51.388;7.032;2023-09-18T02:16:35;6.73;;;3.90;;
34783;SDS011;20998;51.388;7.032;2023-09-18T02:19:04;15.50;;;3.73;;
34783;SDS011;20998;51.388;7.032;2023-09-18T02:21:30;8.07;;;3.43;;
34783;SDS011;20998;51.388;7.032;2023-09-18T02:23:56;9.20;;;3.90;;
34783;SDS011;20998;51.388;7.032;2023-09-18T02:26:23;11.27;;;3.83;;
34783;SDS011;20998;51.388;7.032;2023-09-18T02:28:51;5.53;;;3.53;;
34783;SDS011;20998;51.388;7.032;2023-09-18T02:31:18;9.90;;;3.90;;
34783;SDS011;20998;51.388;7.032;2023-09-18T02:33:44;6.77;;;3.43;;
34783;SDS011;20998;51.388;7.032;2023-09-18T02:36:11;5.60;;;3.67;;
34783;SDS011;20998;51.388;7.032;2023-09-18T02:38:37;10.53;;;3.40;;
34783;SDS011;20998;51.388;7.032;2023-09-18T02:41:03;4.37;;;3.10;;
34783;SDS011;20998;51.388;7.032;2023-09-18T02:43:29;5.83;;;3.47;;
34783;SDS011;20998;51.388;7.032;2023-09-18T02:45:55;5.37;;;3.57;;
34783;SDS011;20998;51.388;7.032;2023-09-18T02:48:21;11.77;;;3.07;;
34783;SDS011;20998;51.388;7.032;2023-09-18T02:50:46;9.50;;;3.20;;
34783;SDS011;20998;51.388;7.032;2023-09-18T02:55:49;5.63;;;3.40;;
34783;SDS011;20998;51.388;7.032;2023-09-18T02:58:19;14.23;;;3.97;;
34783;SDS011;20998;51.388;7.032;2023-09-18T03:00:46;13.80;;;4.40;;
34783;SDS011;20998;51.388;7.032;2023-09-18T03:03:14;6.53;;;3.60;;
34783;SDS011;20998;51.388;7.032;2023-09-18T03:05:41;5.57;;;3.50;;
34783;SDS011;20998;51.388;7.032;2023-09-18T03:08:07;6.37;;;3.33;;
34783;SDS011;20998;51.388;7.032;2023-09-18T03:10:40;8.77;;;3.10;;
34783;SDS011;20998;51.388;7.032;2023-09-18T03:13:07;11.43;;;3.40;;
34783;SDS011;20998;51.388;7.032;2023-09-18T03:15:34;4.00;;;3.17;;
34783;SDS011;20998;51.388;7.032;2023-09-18T03:18:01;10.30;;;3.47;;
34783;SDS011;20998;51.388;7.032;2023-09-18T03:20:28;7.40;;;3.07;;
34783;SDS011;20998;51.388;7.032;2023-09-18T03:22:55;20.60;;;3.50;;
34783;SDS011;20998;51.388;7.032;2023-09-18T03:25:25;5.43;;;3.17;;
34783;SDS011;20998;51.388;7.032;2023-09-18T03:27:52;3.83;;;2.83;;
34783;SDS011;20998;51.388;7.032;2023-09-18T03:30:20;5.40;;;2.60;;
34783;SDS011;20998;51.388;7.032;2023-09-18T03:32:48;8.63;;;3.03;;
34783;SDS011;20998;51.388;7.032;2023-09-18T03:35:14;5.07;;;2.57;;
34783;SDS011;20998;51.388;7.032;2023-09-18T03:37:46;6.50;;;3.17;;
34783;SDS011;20998;51.388;7.032;2023-09-18T03:40:18;13.93;;;2.83;;
34783;SDS011;20998;51.388;7.032;2023-09-18T03:42:44;5.27;;;2.47;;
34783;SDS011;20998;51.388;7.032;2023-09-18T03:45:10;6.90;;;2.70;;
34783;SDS011;20998;51.388;7.032;2023-09-18T03:47:37;7.07;;;3.20;;
34783;SDS011;20998;51.388;7.032;2023-09-18T03:50:04;6.83;;;3.03;;
34783;SDS011;20998;51.388;7.032;2023-09-18T03:52:31;7.07;;;3.33;;
34783;SDS011;20998;51.388;7.032;2023-09-18T03:54:57;3.93;;;2.37;;
34783;SDS011;20998;51.388;7.032;2023-09-18T03:57:23;5.03;;;2.73;;
34783;SDS011;20998;51.388;7.032;2023-09-18T03:59:49;8.53;;;2.80;;
34783;SDS011;20998;51.388;7.032;2023-09-18T04:02:15;9.23;;;3.00;;
34783;SDS011;20998;51.388;7.032;2023-09-18T04:04:41;17.53;;;2.80;;
34783;SDS011;20998;51.388;7.032;2023-09-18T04:07:07;13.33;;;3.50;;
34783;SDS011;20998;51.388;7.032;2023-09-18T04:09:33;10.23;;;2.70;;
34783;SDS011;20998;51.388;7.032;2023-09-18T04:12:00;8.03;;;2.97;;
34783;SDS011;20998;51.388;7.032;2023-09-18T04:14:26;7.03;;;2.67;;
34783;SDS011;20998;51.388;7.032;2023-09-18T04:16:52;4.70;;;2.33;;
34783;SDS011;20998;51.388;7.032;2023-09-18T04:19:18;5.53;;;2.90;;
34783;SDS011;20998;51.388;7.032;2023-09-18T04:21:44;5.43;;;2.80;;
34783;SDS011;20998;51.388;7.032;2023-09-18T04:24:10;9.33;;;2.90;;
34783;SDS011;20998;51.388;7.032;2023-09-18T04:26:35;7.10;;;3.37;;
34783;SDS011;20998;51.388;7.032;2023-09-18T04:29:02;7.90;;;3.33;;
34783;SDS011;20998;51.388;7.032;2023-09-18T04:31:28;13.53;;;3.17;;
34783;SDS011;20998;51.388;7.032;2023-09-18T04:33:55;7.37;;;3.03;;
34783;SDS011;20998;51.388;7.032;2023-09-18T04:36:20;8.17;;;2.93;;
34783;SDS011;20998;51.388;7.032;2023-09-18T04:38:46;7.10;;;2.43;;
34783;SDS011;20998;51.388;7.032;2023-09-18T04:41:13;8.20;;;2.60;;
34783;SDS011;20998;51.388;7.032;2023-09-18T04:43:39;6.77;;;3.03;;
34783;SDS011;20998;51.388;7.032;2023-09-18T04:46:06;4.20;;;2.77;;
34783;SDS011;20998;51.388;7.032;2023-09-18T04:48:32;5.30;;;2.63;;
34783;SDS011;20998;51.388;7.032;2023-09-18T04:50:58;10.63;;;3.03;;
34783;SDS011;20998;51.388;7.032;2023-09-18T04:53:24;6.10;;;2.70;;
34783;SDS011;20998;51.388;7.032;2023-09-18T04:55:51;11.47;;;3.30;;
34783;SDS011;20998;51.388;7.032;2023-09-18T04:58:17;9.87;;;2.87;;
34783;SDS011;20998;51.388;7.032;2023-09-18T05:00:43;3.97;;;2.30;;
34783;SDS011;20998;51.388;7.032;2023-09-18T05:03:09;7.83;;;2.80;;
34783;SDS011;20998;51.388;7.032;2023-09-18T05:05:35;8.00;;;3.30;;
34783;SDS011;20998;51.388;7.032;2023-09-18T05:08:02;9.77;;;2.50;;
34783;SDS011;20998;51.388;7.032;2023-09-18T05:10:28;7.17;;;2.50;;
34783;SDS011;20998;51.388;7.032;2023-09-18T05:12:55;12.40;;;2.80;;
34783;SDS011;20998;51.388;7.032;2023-09-18T05:15:23;11.37;;;2.57;;
34783;SDS011;20998;51.388;7.032;2023-09-18T05:17:51;11.37;;;2.50;;
34783;SDS011;20998;51.388;7.032;2023-09-18T05:20:20;8.17;;;2.40;;
34783;SDS011;20998;51.388;7.032;2023-09-18T05:22:49;7.47;;;3.13;;
34783;SDS011;20998;51.388;7.032;2023-09-18T05:25:15;9.37;;;3.07;;
34783;SDS011;20998;51.388;7.032;2023-09-18T05:27:41;6.57;;;2.43;;
34783;SDS011;20998;51.388;7.032;2023-09-18T05:30:13;10.30;;;3.70;;
34783;SDS011;20998;51.388;7.032;2023-09-18T05:32:41;11.83;;;3.27;;
34783;SDS011;20998;51.388;7.032;2023-09-18T05:35:07;12.33;;;3.07;;
34783;SDS011;20998;51.388;7.032;2023-09-18T05:37:36;12.77;;;2.93;;
34783;SDS011;20998;51.388;7.032;2023-09-18T05:40:03;5.07;;;2.60;;
34783;SDS011;20998;51.388;7.032;2023-09-18T05:42:30;11.30;;;3.17;;
34783;SDS011;20998;51.388;7.032;2023-09-18T05:44:56;6.27;;;2.73;;
34783;SDS011;20998;51.388;7.032;2023-09-18T05:47:22;7.30;;;2.97;;
34783;SDS011;20998;51.388;7.032;2023-09-18T05:49:48;12.57;;;2.97;;
34783;SDS011;20998;51.388;7.032;2023-09-18T05:52:14;12.13;;;2.50;;
34783;SDS011;20998;51.388;7.032;2023-09-18T05:54:40;7.97;;;3.03;;
34783;SDS011;20998;51.388;7.032;2023-09-18T05:57:06;9.47;;;2.63;;
34783;SDS011;20998;51.388;7.032;2023-09-18T05:59:32;11.63;;;2.63;;
34783;SDS011;20998;51.388;7.032;2023-09-18T06:01:58;6.63;;;2.93;;
34783;SDS011;20998;51.388;7.032;2023-09-18T06:04:24;8.90;;;2.33;;
34783;SDS011;20998;51.388;7.032;2023-09-18T06:06:50;10.57;;;2.50;;
34783;SDS011;20998;51.388;7.032;2023-09-18T06:12:38;4.70;;;2.27;;
34783;SDS011;20998;51.388;7.032;2023-09-18T06:15:05;7.87;;;2.60;;
34783;SDS011;20998;51.388;7.032;2023-09-18T06:17:35;8.50;;;2.50;;
34783;SDS011;20998;51.388;7.032;2023-09-18T06:20:01;9.87;;;2.20;;
34783;SDS011;20998;51.388;7.032;2023-09-18T06:22:28;12.03;;;2.90;;
34783;SDS011;20998;51.388;7.032;2023-09-18T06:24:54;17.90;;;3.67;;
34783;SDS011;20998;51.388;7.032;2023-09-18T06:27:20;9.77;;;2.63;;
34783;SDS011;20998;51.388;7.032;2023-09-18T06:29:47;11.03;;;2.80;;
34783;SDS011;20998;51.388;7.032;2023-09-18T06:32:13;4.83;;;2.30;;
34783;SDS011;20998;51.388;7.032;2023-09-18T06:34:38;6.20;;;2.20;;
34783;SDS011;20998;51.388;7.032;2023-09-18T06:37:07;5.37;;;2.07;;
34783;SDS011;20998;51.388;7.032;2023-09-18T06:39:35;9.07;;;2.20;;
34783;SDS011;20998;51.388;7.032;2023-09-18T06:42:02;2.53;;;2.10;;
34783;SDS011;20998;51.388;7.032;2023-09-18T06:44:28;5.63;;;2.10;;
34783;SDS011;20998;51.388;7.032;2023-09-18T06:46:54;7.63;;;2.43;;
34783;SDS011;20998;51.388;7.032;2023-09-18T06:49:20;4.60;;;2.37;;
34783;SDS011;20998;51.388;7.032;2023-09-18T06:51:46;9.40;;;2.00;;
34783;SDS011;20998;51.388;7.032;2023-09-18T06:54:12;5.07;;;1.90;;
34783;SDS011;20998;51.388;7.032;2023-09-18T06:56:38;4.63;;;2.00;;
34783;SDS011;20998;51.388;7.032;2023-09-18T06:59:04;9.33;;;2.77;;
34783;SDS011;20998;51.388;7.032;2023-09-18T07:01:30;4.37;;;2.10;;
34783;SDS011;20998;51.388;7.032;2023-09-18T07:03:56;9.97;;;1.93;;
34783;SDS011;20998;51.388;7.032;2023-09-18T07:06:24;4.63;;;1.80;;
34783;SDS011;20998;51.388;7.032;2023-09-18T07:08:50;7.20;;;1.77;;
34783;SDS011;20998;51.388;7.032;2023-09-18T07:11:16;4.93;;;1.67;;
34783;SDS011;20998;51.388;7.032;2023-09-18T07:13:43;5.63;;;1.97;;
34783;SDS011;20998;51.388;7.032;2023-09-18T07:16:09;5.13;;;2.40;;
34783;SDS011;20998;51.388;7.032;2023-09-18T07:18:35;5.17;;;2.20;;
34783;SDS011;20998;51.388;7.032;2023-09-18T07:21:01;7.63;;;1.67;;
34783;SDS011;20998;51.388;7.032;2023-09-18T07:23:27;4.77;;;1.73;;
34783;SDS011;20998;51.388;7.032;2023-09-18T07:25:53;9.10;;;1.67;;
34783;SDS011;20998;51.388;7.032;2023-09-18T07:28:19;4.63;;;1.90;;
34783;SDS011;20998;51.388;7.032;2023-09-18T07:30:45;3.67;;;1.87;;
34783;SDS011;20998;51.388;7.032;2023-09-18T07:33:12;8.37;;;2.40;;
34783;SDS011;20998;51.388;7.032;2023-09-18T07:35:40;6.07;;;1.73;;
34783;SDS011;20998;51.388;7.032;2023-09-18T07:38:06;6.00;;;1.40;;
34783;SDS011;20998;51.388;7.032;2023-09-18T07:40:33;6.00;;;2.10;;
34783;SDS011;20998;51.388;7.032;2023-09-18T07:42:59;7.83;;;2.03;;
34783;SDS011;20998;51.388;7.032;2023-09-18T07:45:25;7.33;;;2.17;;
34783;SDS011;20998;51.388;7.032;2023-09-18T07:47:50;3.70;;;1.67;;
34783;SDS011;20998;51.388;7.032;2023-09-18T07:50:16;6.43;;;2.00;;
34783;SDS011;20998;51.388;7.032;2023-09-18T07:52:43;10.73;;;2.17;;
34783;SDS011;20998;51.388;7.032;2023-09-18T07:55:09;5.97;;;2.37;;
34783;SDS011;20998;51.388;7.032;2023-09-18T07:57:35;2.67;;;1.63;;
34783;SDS011;20998;51.388;7.032;2023-09-18T08:00:02;4.07;;;2.03;;
34783;SDS011;20998;51.388;7.032;2023-09-18T08:02:37;3.40;;;1.90;;
34783;SDS011;20998;51.388;7.032;2023-09-18T08:05:04;5.97;;;1.73;;
34783;SDS011;20998;51.388;7.032;2023-09-18T08:07:30;10.10;;;1.70;;
34783;SDS011;20998;51.388;7.032;2023-09-18T08:09:57;3.17;;;1.43;;
34783;SDS011;20998;51.388;7.032;2023-09-18T08:12:23;3.67;;;2.00;;
34783;SDS011;20998;51.388;7.032;2023-09-18T08:14:49;4.57;;;1.67;;
34783;SDS011;20998;51.388;7.032;2023-09-18T08:17:15;2.23;;;1.27;;
34783;SDS011;20998;51.388;7.032;2023-09-18T08:19:41;4.67;;;1.50;;
34783;SDS011;20998;51.388;7.032;2023-09-18T08:22:09;7.70;;;1.43;;
34783;SDS011;20998;51.388;7.032;2023-09-18T08:24:37;4.97;;;1.70;;
34783;SDS011;20998;51.388;7.032;2023-09-18T08:27:03;5.63;;;1.53;;
34783;SDS011;20998;51.388;7.032;2023-09-18T08:29:29;1.50;;;1.07;;
34783;SDS011;20998;51.388;7.032;2023-09-18T08:31:55;2.20;;;1.30;;
34783;SDS011;20998;51.388;7.032;2023-09-18T08:34:21;3.50;;;1.33;;
34783;SDS011;20998;51.388;7.032;2023-09-18T08:36:47;2.13;;;1.20;;
34783;SDS011;20998;51.388;7.032;2023-09-18T08:39:13;2.07;;;1.20;;
34783;SDS011;20998;51.388;7.032;2023-09-18T08:41:41;6.80;;;1.10;;
34783;SDS011;20998;51.388;7.032;2023-09-18T08:44:08;5.20;;;1.07;;
34783;SDS011;20998;51.388;7.032;2023-09-18T08:46:34;3.43;;;1.20;;
34783;SDS011;20998;51.388;7.032;2023-09-18T08:49:01;2.10;;;1.27;;
34783;SDS011;20998;51.388;7.032;2023-09-18T08:51:28;2.97;;;0.90;;
34783;SDS011;20998;51.388;7.032;2023-09-18T08:53:54;1.50;;;1.10;;
34783;SDS011;20998;51.388;7.032;2023-09-18T08:56:20;4.17;;;1.27;;
34783;SDS011;20998;51.388;7.032;2023-09-18T08:58:47;3.10;;;1.10;;
34783;SDS011;20998;51.388;7.032;2023-09-18T09:01:13;3.97;;;1.10;;
34783;SDS011;20998;51.388;7.032;2023-09-18T09:03:39;4.70;;;1.53;;
34783;SDS011;20998;51.388;7.032;2023-09-18T09:06:07;1.47;;;1.13;;
34783;SDS011;20998;51.388;7.032;2023-09-18T09:08:34;2.33;;;1.07;;
34783;SDS011;20998;51.388;7.032;2023-09-18T09:11:00;5.73;;;1.43;;
34783;SDS011;20998;51.388;7.032;2023-09-18T09:13:26;1.90;;;1.00;;
34783;SDS011;20998;51.388;7.032;2023-09-18T09:15:53;3.20;;;1.20;;
34783;SDS011;20998;51.388;7.032;2023-09-18T09:18:21;5.90;;;1.43;;
34783;SDS011;20998;51.388;7.032;2023-09-18T09:23:25;1.03;;;0.93;;
34783;SDS011;20998;51.388;7.032;2023-09-18T09:25:51;1.37;;;0.97;;
34783;SDS011;20998;51.388;7.032;2023-09-18T09:28:26;3.60;;;1.00;;
34783;SDS011;20998;51.388;7.032;2023-09-18T09:30:59;1.17;;;0.93;;
34783;SDS011;20998;51.388;7.032;2023-09-18T09:33:27;6.03;;;1.13;;
34783;SDS011;20998;51.388;7.032;2023-09-18T09:35:54;1.90;;;1.10;;
34783;SDS011;20998;51.388;7.032;2023-09-18T09:38:22;4.17;;;1.33;;
34783;SDS011;20998;51.388;7.032;2023-09-18T09:40:57;5.13;;;1.23;;
34783;SDS011;20998;51.388;7.032;2023-09-18T09:43:31;2.67;;;1.03;;
34783;SDS011;20998;51.388;7.032;2023-09-18T09:45:58;2.50;;;1.00;;
34783;SDS011;20998;51.388;7.032;2023-09-18T09:48:25;2.63;;;0.90;;
34783;SDS011;20998;51.388;7.032;2023-09-18T09:50:51;2.40;;;1.23;;
34783;SDS011;20998;51.388;7.032;2023-09-18T09:53:41;2.37;;;0.93;;
34783;SDS011;20998;51.388;7.032;2023-09-18T09:56:08;1.67;;;0.90;;
34783;SDS011;20998;51.388;7.032;2023-09-18T09:58:34;2.70;;;0.90;;
34783;SDS011;20998;51.388;7.032;2023-09-18T10:01:02;1.30;;;0.90;;
34783;SDS011;20998;51.388;7.032;2023-09-18T10:03:35;3.20;;;1.10;;
34783;SDS011;20998;51.388;7.032;2023-09-18T10:06:03;2.93;;;1.40;;
34783;SDS011;20998;51.388;7.032;2023-09-18T10:08:30;0.90;;;0.90;;
34783;SDS011;20998;51.388;7.032;2023-09-18T10:11:01;1.93;;;1.10;;
34783;SDS011;20998;51.388;7.032;2023-09-18T10:13:46;1.40;;;1.10;;
34783;SDS011;20998;51.388;7.032;2023-09-18T10:16:17;2.47;;;1.10;;
34783;SDS011;20998;51.388;7.032;2023-09-18T10:18:47;3.97;;;1.00;;
34783;SDS011;20998;51.388;7.032;2023-09-18T10:21:39;2.93;;;1.00;;
34783;SDS011;20998;51.388;7.032;2023-09-18T10:24:25;1.50;;;0.70;;
34783;SDS011;20998;51.388;7.032;2023-09-18T10:29:23;0.95;;;0.68;;
34783;SDS011;20998;51.388;7.032;2023-09-18T10:31:53;3.08;;;0.90;;
34783;SDS011;20998;51.388;7.032;2023-09-18T10:34:20;0.65;;;0.57;;
34783;SDS011;20998;51.388;7.032;2023-09-18T10:36:47;3.00;;;1.20;;
34783;SDS011;20998;51.388;7.032;2023-09-18T10:39:13;9.60;;;1.33;;
34783;SDS011;20998;51.388;7.032;2023-09-18T10:41:44;1.10;;;1.00;;
34783;SDS011;20998;51.388;7.032;2023-09-18T10:44:23;5.78;;;1.27;;
34783;SDS011;20998;51.388;7.032;2023-09-18T10:46:49;5.00;;;1.33;;
34783;SDS011;20998;51.388;7.032;2023-09-18T10:49:19;3.17;;;0.90;;
34783;SDS011;20998;51.388;7.032;2023-09-18T10:51:46;10.18;;;1.20;;
34783;SDS011;20998;51.388;7.032;2023-09-18T10:54:15;2.70;;;1.17;;
34783;SDS011;20998;51.388;7.032;2023-09-18T10:56:45;2.08;;;1.10;;
34783;SDS011;20998;51.388;7.032;2023-09-18T10:59:11;6.05;;;1.40;;
34783;SDS011;20998;51.388;7.032;2023-09-18T11:01:40;2.53;;;1.20;;
34783;SDS011;20998;51.388;7.032;2023-09-18T11:04:06;1.33;;;1.05;;
34783;SDS011;20998;51.388;7.032;2023-09-18T11:09:29;4.07;;;1.20;;
34783;SDS011;20998;51.388;7.032;2023-09-18T11:14:23;6.78;;;1.02;;
34783;SDS011;20998;51.388;7.032;2023-09-18T11:17:06;6.75;;;1.30;;
34783;SDS011;20998;51.388;7.032;2023-09-18T11:19:32;1.35;;;0.93;;
34783;SDS011;20998;51.388;7.032;2023-09-18T11:22:06;3.83;;;0.80;;
34783;SDS011;20998;51.388;7.032;2023-09-18T11:24:35;1.85;;;1.05;;
34783;SDS011;20998;51.388;7.032;2023-09-18T11:27:01;1.50;;;1.17;;
34783;SDS011;20998;51.388;7.032;2023-09-18T11:29:26;2.40;;;1.20;;
34783;SDS011;20998;51.388;7.032;2023-09-18T11:31:56;6.18;;;1.33;;
34783;SDS011;20998;51.388;7.032;2023-09-18T11:34:40;3.85;;;1.08;;
34783;SDS011;20998;51.388;7.032;2023-09-18T11:37:22;1.60;;;1.10;;
34783;SDS011;20998;51.388;7.032;2023-09-18T11:39:50;2.60;;;1.10;;
34783;SDS011;20998;51.388;7.032;2023-09-18T11:42:19;2.80;;;1.08;;
34783;SDS011;20998;51.388;7.032;2023-09-18T11:44:47;2.20;;;1.30;;
34783;SDS011;20998;51.388;7.032;2023-09-18T11:47:15;2.08;;;1.13;;
34783;SDS011;20998;51.388;7.032;2023-09-18T11:49:53;2.15;;;1.00;;
34783;SDS011;20998;51.388;7.032;2023-09-18T11:52:26;1.52;;;1.00;;
34783;SDS011;20998;51.388;7.032;2023-09-18T11:54:55;2.88;;;1.23;;
34783;SDS011;20998;51.388;7.032;2023-09-18T11:57:23;6.70;;;1.30;;
34783;SDS011;20998;51.388;7.032;2023-09-18T11:59:50;2.08;;;1.10;;
34783;SDS011;20998;51.388;7.032;2023-09-18T12:04:53;1.45;;;1.10;;
34783;SDS011;20998;51.388;7.032;2023-09-18T12:07:19;3.85;;;1.50;;
34783;SDS011;20998;51.388;7.032;2023-09-18T12:09:45;1.83;;;1.30;;
34783;SDS011;20998;51.388;7.032;2023-09-18T12:12:11;2.90;;;1.15;;
34783;SDS011;20998;51.388;7.032;2023-09-18T12:14:40;2.33;;;1.40;;
34783;SDS011;20998;51.388;7.032;2023-09-18T12:17:12;2.25;;;1.20;;
34783;SDS011;20998;51.388;7.032;2023-09-18T12:19:49;4.68;;;1.40;;
34783;SDS011;20998;51.388;7.032;2023-09-18T12:22:29;3.70;;;1.15;;
34783;SDS011;20998;51.388;7.032;2023-09-18T12:25:12;3.28;;;1.42;;
34783;SDS011;20998;51.388;7.032;2023-09-18T12:27:39;2.47;;;0.90;;
34783;SDS011;20998;51.388;7.032;2023-09-18T12:30:08;1.77;;;1.38;;
34783;SDS011;20998;51.388;7.032;2023-09-18T12:32:37;2.33;;;1.40;;
34783;SDS011;20998;51.388;7.032;2023-09-18T12:35:05;1.40;;;1.30;;
34783;SDS011;20998;51.388;7.032;2023-09-18T12:37:32;2.17;;;1.15;;
34783;SDS011;20998;51.388;7.032;2023-09-18T12:39:59;3.00;;;1.25;;
34783;SDS011;20998;51.388;7.032;2023-09-18T12:42:25;3.55;;;1.40;;
34783;SDS011;20998;51.388;7.032;2023-09-18T12:44:51;2.88;;;1.25;;
34783;SDS011;20998;51.388;7.032;2023-09-18T12:47:17;2.15;;;1.40;;
34783;SDS011;20998;51.388;7.032;2023-09-18T12:49:43;3.58;;;1.58;;
34783;SDS011;20998;51.388;7.032;2023-09-18T12:52:09;4.80;;;1.40;;
34783;SDS011;20998;51.388;7.032;2023-09-18T12:54:44;2.55;;;1.40;;
34783;SDS011;20998;51.388;7.032;2023-09-18T12:57:19;1.67;;;1.20;;
34783;SDS011;20998;51.388;7.032;2023-09-18T12:59:45;4.32;;;1.27;;
34783;SDS011;20998;51.388;7.032;2023-09-18T13:02:15;2.40;;;1.55;;
34783;SDS011;20998;51.388;7.032;2023-09-18T13:04:47;3.72;;;1.42;;
34783;SDS011;20998;51.388;7.032;2023-09-18T13:07:20;2.53;;;1.40;;
34783;SDS011;20998;51.388;7.032;2023-09-18T13:12:40;1.63;;;1.30;;
34783;SDS011;20998;51.388;7.032;2023-09-18T13:15:06;2.08;;;1.30;;
34783;SDS011;20998;51.388;7.032;2023-09-18T13:17:51;1.92;;;1.33;;
34783;SDS011;20998;51.388;7.032;2023-09-18T13:20:18;4.90;;;1.45;;
34783;SDS011;20998;51.388;7.032;2023-09-18T13:22:49;2.65;;;1.00;;
34783;SDS011;20998;51.388;7.032;2023-09-18T13:25:23;2.63;;;1.45;;
34783;SDS011;20998;51.388;7.032;2023-09-18T13:28:00;1.55;;;1.08;;
34783;SDS011;20998;51.388;7.032;2023-09-18T13:30:28;1.58;;;1.38;;
34783;SDS011;20998;51.388;7.032;2023-09-18T13:33:09;1.52;;;0.82;;
34783;SDS011;20998;51.388;7.032;2023-09-18T13:35:39;2.67;;;1.38;;
34783;SDS011;20998;51.388;7.032;2023-09-18T13:38:05;1.48;;;1.13;;
34783;SDS011;20998;51.388;7.032;2023-09-18T13:40:36;4.82;;;1.42;;
34783;SDS011;20998;51.388;7.032;2023-09-18T13:43:03;8.50;;;1.67;;
34783;SDS011;20998;51.388;7.032;2023-09-18T13:45:29;4.13;;;1.27;;
34783;SDS011;20998;51.388;7.032;2023-09-18T13:47:55;2.17;;;1.40;;
34783;SDS011;20998;51.388;7.032;2023-09-18T13:50:21;2.17;;;1.10;;
34783;SDS011;20998;51.388;7.032;2023-09-18T13:52:47;2.30;;;1.30;;
34783;SDS011;20998;51.388;7.032;2023-09-18T13:55:13;3.13;;;1.48;;
34783;SDS011;20998;51.388;7.032;2023-09-18T13:57:39;1.42;;;1.20;;
34783;SDS011;20998;51.388;7.032;2023-09-18T14:00:06;3.20;;;1.50;;
34783;SDS011;20998;51.388;7.032;2023-09-18T14:02:35;4.20;;;1.38;;
34783;SDS011;20998;51.388;7.032;2023-09-18T14:05:01;1.77;;;1.20;;
34783;SDS011;20998;51.388;7.032;2023-09-18T14:07:28;2.38;;;1.42;;
34783;SDS011;20998;51.388;7.032;2023-09-18T14:09:54;1.27;;;1.08;;
34783;SDS011;20998;51.388;7.032;2023-09-18T14:12:20;2.10;;;1.30;;
34783;SDS011;20998;51.388;7.032;2023-09-18T14:14:46;3.55;;;1.33;;
34783;SDS011;20998;51.388;7.032;2023-09-18T14:17:11;2.10;;;1.02;;
34783;SDS011;20998;51.388;7.032;2023-09-18T14:19:37;5.60;;;1.65;;
34783;SDS011;20998;51.388;7.032;2023-09-18T14:22:07;4.18;;;1.52;;
34783;SDS011;20998;51.388;7.032;2023-09-18T14:24:33;1.17;;;1.00;;
34783;SDS011;20998;51.388;7.032;2023-09-18T14:27:02;1.30;;;1.10;;
34783;SDS011;20998;51.388;7.032;2023-09-18T14:29:28;2.83;;;1.58;;
34783;SDS011;20998;51.388;7.032;2023-09-18T14:31:58;1.85;;;1.33;;
34783;SDS011;20998;51.388;7.032;2023-09-18T14:34:24;1.55;;;1.17;;
34783;SDS011;20998;51.388;7.032;2023-09-18T14:36:50;1.85;;;0.90;;
34783;SDS011;20998;51.388;7.032;2023-09-18T14:39:16;3.00;;;1.38;;
34783;SDS011;20998;51.388;7.032;2023-09-18T14:41:42;2.15;;;1.15;;
34783;SDS011;20998;51.388;7.032;2023-09-18T14:44:08;2.47;;;1.15;;
34783;SDS011;20998;51.388;7.032;2023-09-18T14:46:35;1.75;;;1.20;;
34783;SDS011;20998;51.388;7.032;2023-09-18T14:49:02;1.30;;;1.20;;
34783;SDS011;20998;51.388;7.032;2023-09-18T14:51:28;2.13;;;1.08;;
34783;SDS011;20998;51.388;7.032;2023-09-18T14:53:54;4.70;;;1.33;;
34783;SDS011;20998;51.388;7.032;2023-09-18T14:56:20;1.08;;;0.98;;
34783;SDS011;20998;51.388;7.032;2023-09-18T14:58:46;2.55;;;0.85;;
34783;SDS011;20998;51.388;7.032;2023-09-18T15:01:12;2.30;;;1.10;;
34783;SDS011;20998;51.388;7.032;2023-09-18T15:03:39;1.95;;;1.42;;
34783;SDS011;20998;51.388;7.032;2023-09-18T15:06:05;1.67;;;0.90;;
34783;SDS011;20998;51.388;7.032;2023-09-18T15:08:32;2.53;;;1.30;;
34783;SDS011;20998;51.388;7.032;2023-09-18T15:11:01;1.33;;;1.02;;
34783;SDS011;20998;51.388;7.032;2023-09-18T15:13:28;2.78;;;0.90;;
34783;SDS011;20998;51.388;7.032;2023-09-18T15:15:55;4.03;;;1.63;;